sensor_id;sensor_type;location;lat;lon;timestamp;pressure;altitude;pressure_sealevel;temperature;humidity
64294;BME280;50636;45.596;5.258;2023-03-23T00:01:13;98303.28;;;17.13;40.79
64294;BME280;50636;45.596;5.258;2023-03-23T00:03:40;98309.09;;;17.10;40.35
64294;BME280;50636;45.596;5.258;2023-03-23T00:06:07;98309.78;;;17.01;40.46
64294;BME280;50636;45.596;5.258;2023-03-23T00:08:34;98297.81;;;16.98;40.41
64294;BME280;50636;45.596;5.258;2023-03-23T00:11:05;98304.22;;;17.02;40.22
64294;BME280;50636;45.596;5.258;2023-03-23T00:13:33;98303.25;;;17.08;39.77
64294;BME280;50636;45.596;5.258;2023-03-23T00:15:58;98301.13;;;17.10;40.06
64294;BME280;50636;45.596;5.258;2023-03-23T00:18:24;98285.47;;;17.09;39.56
64294;BME280;50636;45.596;5.258;2023-03-23T00:20:53;98287.22;;;16.98;39.61
64294;BME280;50636;45.596;5.258;2023-03-23T00:23:20;98311.63;;;17.00;39.61
64294;BME280;50636;45.596;5.258;2023-03-23T00:25:50;98288.13;;;17.09;39.13
64294;BME280;50636;45.596;5.258;2023-03-23T00:28:16;98285.50;;;17.14;38.84
64294;BME280;50636;45.596;5.258;2023-03-23T00:30:42;98277.34;;;17.21;37.91
64294;BME280;50636;45.596;5.258;2023-03-23T00:33:10;98280.00;;;17.21;37.64
64294;BME280;50636;45.596;5.258;2023-03-23T00:35:42;98297.59;;;17.32;36.54
64294;BME280;50636;45.596;5.258;2023-03-23T00:38:10;98309.19;;;17.26;37.48
64294;BME280;50636;45.596;5.258;2023-03-23T00:40:36;98282.94;;;17.24;38.07
64294;BME280;50636;45.596;5.258;2023-03-23T00:43:02;98285.63;;;17.29;37.40
64294;BME280;50636;45.596;5.258;2023-03-23T00:45:29;98287.22;;;17.30;37.65
64294;BME280;50636;45.596;5.258;2023-03-23T00:47:55;98294.31;;;17.20;37.34
64294;BME280;50636;45.596;5.258;2023-03-23T00:50:21;98284.25;;;17.22;36.78
64294;BME280;50636;45.596;5.258;2023-03-23T00:52:47;98277.63;;;17.24;38.49
64294;BME280;50636;45.596;5.258;2023-03-23T00:55:15;98298.81;;;17.19;37.36
64294;BME280;50636;45.596;5.258;2023-03-23T00:57:41;98287.75;;;17.00;38.23
64294;BME280;50636;45.596;5.258;2023-03-23T01:00:07;98302.13;;;17.04;38.02
64294;BME280;50636;45.596;5.258;2023-03-23T01:02:36;98280.66;;;17.06;37.87
64294;BME280;50636;45.596;5.258;2023-03-23T01:05:01;98295.06;;;17.15;37.51
64294;BME280;50636;45.596;5.258;2023-03-23T01:07:28;98287.13;;;17.15;37.68
64294;BME280;50636;45.596;5.258;2023-03-23T01:09:56;98276.72;;;17.08;37.96
64294;BME280;50636;45.596;5.258;2023-03-23T01:12:23;98277.94;;;16.95;37.91
64294;BME280;50636;45.596;5.258;2023-03-23T01:14:50;98293.75;;;16.85;38.34
64294;BME280;50636;45.596;5.258;2023-03-23T01:17:16;98274.09;;;16.81;38.31
64294;BME280;50636;45.596;5.258;2023-03-23T01:19:42;98298.28;;;16.90;38.30
64294;BME280;50636;45.596;5.258;2023-03-23T01:22:08;98281.19;;;17.03;38.30
64294;BME280;50636;45.596;5.258;2023-03-23T01:24:33;98275.66;;;17.09;37.71
64294;BME280;50636;45.596;5.258;2023-03-23T01:26:59;98290.53;;;17.10;37.99
64294;BME280;50636;45.596;5.258;2023-03-23T01:29:34;98293.44;;;17.09;38.30
64294;BME280;50636;45.596;5.258;2023-03-23T01:32:02;98263.91;;;17.00;38.53
64294;BME280;50636;45.596;5.258;2023-03-23T01:34:27;98285.94;;;17.01;38.26
64294;BME280;50636;45.596;5.258;2023-03-23T01:36:53;98297.13;;;16.81;38.66
64294;BME280;50636;45.596;5.258;2023-03-23T01:39:20;98301.00;;;16.73;38.79
64294;BME280;50636;45.596;5.258;2023-03-23T01:41:45;98300.16;;;16.67;38.93
64294;BME280;50636;45.596;5.258;2023-03-23T01:46:43;98286.59;;;16.64;38.94
64294;BME280;50636;45.596;5.258;2023-03-23T01:49:16;98275.28;;;16.68;38.31
64294;BME280;50636;45.596;5.258;2023-03-23T01:51:48;98293.50;;;16.65;38.26
64294;BME280;50636;45.596;5.258;2023-03-23T01:54:17;98286.56;;;16.58;38.08
64294;BME280;50636;45.596;5.258;2023-03-23T01:56:54;98282.56;;;16.56;38.24
64294;BME280;50636;45.596;5.258;2023-03-23T01:59:23;98279.53;;;16.47;38.24
64294;BME280;50636;45.596;5.258;2023-03-23T02:01:51;98282.16;;;16.42;37.80
64294;BME280;50636;45.596;5.258;2023-03-23T02:04:19;98283.19;;;16.41;38.30
64294;BME280;50636;45.596;5.258;2023-03-23T02:06:47;98293.56;;;16.48;38.37
64294;BME280;50636;45.596;5.258;2023-03-23T02:09:13;98279.09;;;16.55;38.28
64294;BME280;50636;45.596;5.258;2023-03-23T02:11:42;98278.50;;;16.48;38.29
64294;BME280;50636;45.596;5.258;2023-03-23T02:14:08;98267.84;;;16.43;38.52
64294;BME280;50636;45.596;5.258;2023-03-23T02:16:43;98293.75;;;16.36;39.60
64294;BME280;50636;45.596;5.258;2023-03-23T02:25:53;98274.22;;;15.98;40.42
64294;BME280;50636;45.596;5.258;2023-03-23T02:31:45;98272.28;;;15.93;41.95
64294;BME280;50636;45.596;5.258;2023-03-23T02:34:18;98253.19;;;15.91;40.73
64294;BME280;50636;45.596;5.258;2023-03-23T02:37:02;98242.88;;;15.90;40.73
64294;BME280;50636;45.596;5.258;2023-03-23T02:39:33;98268.16;;;15.81;41.16
64294;BME280;50636;45.596;5.258;2023-03-23T02:42:08;98242.81;;;15.85;41.52
64294;BME280;50636;45.596;5.258;2023-03-23T02:44:37;98257.34;;;15.82;40.90
64294;BME280;50636;45.596;5.258;2023-03-23T02:47:07;98249.00;;;15.73;41.96
64294;BME280;50636;45.596;5.258;2023-03-23T02:49:36;98256.63;;;15.70;41.74
64294;BME280;50636;45.596;5.258;2023-03-23T02:52:08;98248.41;;;15.71;42.02
64294;BME280;50636;45.596;5.258;2023-03-23T02:54:39;98251.72;;;15.78;41.81
64294;BME280;50636;45.596;5.258;2023-03-23T02:57:05;98261.84;;;15.82;42.32
64294;BME280;50636;45.596;5.258;2023-03-23T02:59:32;98239.28;;;15.79;43.31
64294;BME280;50636;45.596;5.258;2023-03-23T03:02:03;98230.88;;;15.82;42.83
64294;BME280;50636;45.596;5.258;2023-03-23T03:04:31;98228.28;;;15.87;42.04
64294;BME280;50636;45.596;5.258;2023-03-23T03:10:18;98259.75;;;15.84;41.37
64294;BME280;50636;45.596;5.258;2023-03-23T03:15:49;98233.53;;;15.82;41.88
64294;BME280;50636;45.596;5.258;2023-03-23T03:18:24;98234.63;;;15.86;42.19
64294;BME280;50636;45.596;5.258;2023-03-23T03:20:55;98209.19;;;15.85;41.78
64294;BME280;50636;45.596;5.258;2023-03-23T03:23:24;98240.13;;;15.80;42.08
64294;BME280;50636;45.596;5.258;2023-03-23T03:25:51;98228.06;;;15.72;42.32
64294;BME280;50636;45.596;5.258;2023-03-23T03:28:20;98223.13;;;15.75;42.24
64294;BME280;50636;45.596;5.258;2023-03-23T03:30:53;98229.44;;;15.74;42.31
64294;BME280;50636;45.596;5.258;2023-03-23T03:33:20;98228.16;;;15.77;42.02
64294;BME280;50636;45.596;5.258;2023-03-23T03:35:54;98229.84;;;15.66;42.84
64294;BME280;50636;45.596;5.258;2023-03-23T03:38:21;98222.16;;;15.65;43.85
64294;BME280;50636;45.596;5.258;2023-03-23T03:40:46;98209.41;;;15.62;43.95
64294;BME280;50636;45.596;5.258;2023-03-23T03:43:12;98261.22;;;15.57;45.05
64294;BME280;50636;45.596;5.258;2023-03-23T03:45:38;98245.91;;;15.60;43.39
64294;BME280;50636;45.596;5.258;2023-03-23T03:48:04;98218.72;;;15.64;42.88
64294;BME280;50636;45.596;5.258;2023-03-23T03:50:29;98228.66;;;15.57;43.04
64294;BME280;50636;45.596;5.258;2023-03-23T03:52:56;98238.94;;;15.53;43.10
64294;BME280;50636;45.596;5.258;2023-03-23T03:55:23;98225.53;;;15.60;43.14
64294;BME280;50636;45.596;5.258;2023-03-23T03:57:48;98241.16;;;15.62;42.94
64294;BME280;50636;45.596;5.258;2023-03-23T04:00:15;98221.34;;;15.64;42.82
64294;BME280;50636;45.596;5.258;2023-03-23T04:02:45;98234.81;;;15.63;42.79
64294;BME280;50636;45.596;5.258;2023-03-23T04:05:20;98218.16;;;15.62;41.97
64294;BME280;50636;45.596;5.258;2023-03-23T04:07:46;98212.22;;;15.55;42.21
64294;BME280;50636;45.596;5.258;2023-03-23T04:10:15;98228.72;;;15.62;41.49
64294;BME280;50636;45.596;5.258;2023-03-23T04:12:40;98226.41;;;15.66;41.25
64294;BME280;50636;45.596;5.258;2023-03-23T04:15:09;98226.69;;;15.69;41.24
64294;BME280;50636;45.596;5.258;2023-03-23T04:17:35;98233.44;;;15.77;41.27
64294;BME280;50636;45.596;5.258;2023-03-23T04:20:01;98212.72;;;15.91;41.07
64294;BME280;50636;45.596;5.258;2023-03-23T04:22:32;98204.88;;;16.01;40.51
64294;BME280;50636;45.596;5.258;2023-03-23T04:25:01;98204.56;;;15.97;40.87
64294;BME280;50636;45.596;5.258;2023-03-23T04:27:30;98195.81;;;15.92;40.83
64294;BME280;50636;45.596;5.258;2023-03-23T04:29:56;98206.63;;;15.90;41.05
64294;BME280;50636;45.596;5.258;2023-03-23T04:32:25;98224.91;;;15.92;40.88
64294;BME280;50636;45.596;5.258;2023-03-23T04:34:58;98193.94;;;15.92;40.85
64294;BME280;50636;45.596;5.258;2023-03-23T04:37:27;98204.84;;;15.96;40.91
64294;BME280;50636;45.596;5.258;2023-03-23T04:39:59;98201.56;;;15.89;41.27
64294;BME280;50636;45.596;5.258;2023-03-23T04:42:37;98197.34;;;15.88;41.30
64294;BME280;50636;45.596;5.258;2023-03-23T04:45:04;98216.53;;;15.78;41.59
64294;BME280;50636;45.596;5.258;2023-03-23T04:47:34;98202.44;;;15.72;41.86
64294;BME280;50636;45.596;5.258;2023-03-23T04:50:08;98218.63;;;15.59;41.98
64294;BME280;50636;45.596;5.258;2023-03-23T04:52:35;98204.72;;;15.47;42.40
64294;BME280;50636;45.596;5.258;2023-03-23T04:55:04;98221.88;;;15.44;42.24
64294;BME280;50636;45.596;5.258;2023-03-23T04:57:32;98221.38;;;15.47;42.53
64294;BME280;50636;45.596;5.258;2023-03-23T04:59:59;98223.78;;;15.49;42.19
64294;BME280;50636;45.596;5.258;2023-03-23T05:02:24;98219.13;;;15.56;42.36
64294;BME280;50636;45.596;5.258;2023-03-23T05:04:50;98226.13;;;15.67;41.84
64294;BME280;50636;45.596;5.258;2023-03-23T05:07:16;98241.66;;;15.75;41.34
64294;BME280;50636;45.596;5.258;2023-03-23T05:09:46;98222.31;;;15.75;41.62
64294;BME280;50636;45.596;5.258;2023-03-23T05:12:12;98235.63;;;15.80;41.21
64294;BME280;50636;45.596;5.258;2023-03-23T05:14:40;98241.47;;;15.82;41.46
64294;BME280;50636;45.596;5.258;2023-03-23T05:17:07;98246.00;;;15.87;41.01
64294;BME280;50636;45.596;5.258;2023-03-23T05:19:33;98235.38;;;15.82;41.49
64294;BME280;50636;45.596;5.258;2023-03-23T05:21:59;98219.97;;;15.78;41.74
64294;BME280;50636;45.596;5.258;2023-03-23T05:24:29;98247.72;;;15.76;41.97
64294;BME280;50636;45.596;5.258;2023-03-23T05:26:57;98222.94;;;15.65;42.03
64294;BME280;50636;45.596;5.258;2023-03-23T05:29:22;98233.47;;;15.60;42.18
64294;BME280;50636;45.596;5.258;2023-03-23T05:31:49;98228.19;;;15.60;42.37
64294;BME280;50636;45.596;5.258;2023-03-23T05:34:15;98233.03;;;15.68;42.63
64294;BME280;50636;45.596;5.258;2023-03-23T05:36:41;98246.56;;;15.89;42.06
64294;BME280;50636;45.596;5.258;2023-03-23T05:39:11;98244.41;;;15.86;42.52
64294;BME280;50636;45.596;5.258;2023-03-23T05:41:36;98273.53;;;15.86;42.10
64294;BME280;50636;45.596;5.258;2023-03-23T05:44:03;98249.25;;;15.72;42.49
64294;BME280;50636;45.596;5.258;2023-03-23T05:46:29;98248.59;;;15.65;42.59
64294;BME280;50636;45.596;5.258;2023-03-23T05:48:54;98250.38;;;15.59;42.77
64294;BME280;50636;45.596;5.258;2023-03-23T05:51:20;98260.38;;;15.57;42.85
64294;BME280;50636;45.596;5.258;2023-03-23T05:53:46;98279.53;;;15.64;42.76
64294;BME280;50636;45.596;5.258;2023-03-23T05:56:13;98276.34;;;15.62;43.13
64294;BME280;50636;45.596;5.258;2023-03-23T05:58:39;98261.50;;;15.61;43.06
64294;BME280;50636;45.596;5.258;2023-03-23T06:01:08;98269.69;;;15.76;42.82
64294;BME280;50636;45.596;5.258;2023-03-23T06:03:34;98267.03;;;15.76;42.86
64294;BME280;50636;45.596;5.258;2023-03-23T06:06:03;98277.72;;;15.82;42.75
64294;BME280;50636;45.596;5.258;2023-03-23T06:08:30;98276.22;;;15.91;42.23
64294;BME280;50636;45.596;5.258;2023-03-23T06:10:56;98281.63;;;15.79;42.25
64294;BME280;50636;45.596;5.258;2023-03-23T06:13:22;98296.22;;;15.82;42.81
64294;BME280;50636;45.596;5.258;2023-03-23T06:15:49;98267.31;;;15.97;42.21
64294;BME280;50636;45.596;5.258;2023-03-23T06:18:14;98298.94;;;16.09;42.29
64294;BME280;50636;45.596;5.258;2023-03-23T06:20:40;98304.63;;;16.17;41.92
64294;BME280;50636;45.596;5.258;2023-03-23T06:23:07;98290.91;;;16.21;41.88
64294;BME280;50636;45.596;5.258;2023-03-23T06:25:34;98305.88;;;16.32;41.97
64294;BME280;50636;45.596;5.258;2023-03-23T06:28:00;98314.22;;;16.46;41.75
64294;BME280;50636;45.596;5.258;2023-03-23T06:30:26;98316.75;;;16.57;41.54
64294;BME280;50636;45.596;5.258;2023-03-23T06:32:55;98322.66;;;16.65;41.74
64294;BME280;50636;45.596;5.258;2023-03-23T06:35:22;98335.91;;;16.65;41.62
64294;BME280;50636;45.596;5.258;2023-03-23T06:37:47;98329.28;;;16.89;41.57
64294;BME280;50636;45.596;5.258;2023-03-23T06:40:13;98336.94;;;17.13;41.76
64294;BME280;50636;45.596;5.258;2023-03-23T06:42:39;98334.84;;;17.15;41.13
64294;BME280;50636;45.596;5.258;2023-03-23T06:45:05;98331.13;;;17.16;40.99
64294;BME280;50636;45.596;5.258;2023-03-23T06:47:31;98340.94;;;17.15;40.98
64294;BME280;50636;45.596;5.258;2023-03-23T06:49:58;98324.81;;;17.22;40.93
64294;BME280;50636;45.596;5.258;2023-03-23T06:52:24;98328.63;;;17.31;40.33
64294;BME280;50636;45.596;5.258;2023-03-23T06:54:51;98328.00;;;17.19;40.71
64294;BME280;50636;45.596;5.258;2023-03-23T06:57:17;98322.22;;;17.00;41.00
64294;BME280;50636;45.596;5.258;2023-03-23T06:59:43;98320.59;;;16.94;41.22
64294;BME280;50636;45.596;5.258;2023-03-23T07:02:11;98316.59;;;16.91;41.81
64294;BME280;50636;45.596;5.258;2023-03-23T07:04:38;98313.03;;;16.81;41.69
64294;BME280;50636;45.596;5.258;2023-03-23T07:07:04;98317.34;;;16.65;42.00
64294;BME280;50636;45.596;5.258;2023-03-23T07:09:30;98311.56;;;16.46;42.26
64294;BME280;50636;45.596;5.258;2023-03-23T07:11:56;98320.81;;;16.43;42.62
64294;BME280;50636;45.596;5.258;2023-03-23T07:14:22;98324.97;;;16.34;42.64
64294;BME280;50636;45.596;5.258;2023-03-23T07:16:48;98318.97;;;16.22;43.18
64294;BME280;50636;45.596;5.258;2023-03-23T07:19:14;98316.88;;;16.24;42.61
64294;BME280;50636;45.596;5.258;2023-03-23T07:21:40;98341.31;;;16.09;42.89
64294;BME280;50636;45.596;5.258;2023-03-23T07:24:09;98329.53;;;16.00;43.25
64294;BME280;50636;45.596;5.258;2023-03-23T07:26:37;98331.34;;;16.16;42.71
64294;BME280;50636;45.596;5.258;2023-03-23T07:29:02;98322.03;;;16.13;43.16
64294;BME280;50636;45.596;5.258;2023-03-23T07:31:28;98327.84;;;16.10;42.93
64294;BME280;50636;45.596;5.258;2023-03-23T07:33:54;98325.75;;;16.12;43.67
64294;BME280;50636;45.596;5.258;2023-03-23T07:36:19;98326.53;;;16.13;43.45
64294;BME280;50636;45.596;5.258;2023-03-23T07:38:45;98326.84;;;16.16;43.03
64294;BME280;50636;45.596;5.258;2023-03-23T07:41:11;98335.13;;;16.20;43.39
64294;BME280;50636;45.596;5.258;2023-03-23T07:43:36;98319.13;;;16.32;43.21
64294;BME280;50636;45.596;5.258;2023-03-23T07:46:02;98320.78;;;16.38;43.41
64294;BME280;50636;45.596;5.258;2023-03-23T07:48:28;98315.63;;;16.53;42.42
64294;BME280;50636;45.596;5.258;2023-03-23T07:50:53;98361.09;;;16.67;42.60
64294;BME280;50636;45.596;5.258;2023-03-23T07:53:19;98327.28;;;16.74;42.24
64294;BME280;50636;45.596;5.258;2023-03-23T07:55:46;98334.41;;;16.74;41.94
64294;BME280;50636;45.596;5.258;2023-03-23T07:58:12;98326.88;;;16.66;42.06
64294;BME280;50636;45.596;5.258;2023-03-23T08:00:43;98317.25;;;16.54;42.15
64294;BME280;50636;45.596;5.258;2023-03-23T08:03:09;98327.09;;;16.59;42.16
64294;BME280;50636;45.596;5.258;2023-03-23T08:05:34;98322.78;;;16.53;42.61
64294;BME280;50636;45.596;5.258;2023-03-23T08:08:00;98311.94;;;16.54;42.62
64294;BME280;50636;45.596;5.258;2023-03-23T08:10:26;98333.16;;;16.54;42.77
64294;BME280;50636;45.596;5.258;2023-03-23T08:12:54;98318.84;;;16.55;42.45
64294;BME280;50636;45.596;5.258;2023-03-23T08:15:22;98343.63;;;16.44;43.06
64294;BME280;50636;45.596;5.258;2023-03-23T08:17:48;98330.09;;;16.46;43.21
64294;BME280;50636;45.596;5.258;2023-03-23T08:20:16;98315.22;;;16.40;43.23
64294;BME280;50636;45.596;5.258;2023-03-23T08:22:45;98321.13;;;16.25;43.32
64294;BME280;50636;45.596;5.258;2023-03-23T08:25:14;98326.53;;;16.13;43.93
64294;BME280;50636;45.596;5.258;2023-03-23T08:27:42;98309.75;;;16.24;43.98
64294;BME280;50636;45.596;5.258;2023-03-23T08:30:14;98345.97;;;16.41;43.61
64294;BME280;50636;45.596;5.258;2023-03-23T08:32:41;98345.22;;;16.45;44.24
64294;BME280;50636;45.596;5.258;2023-03-23T08:35:09;98354.38;;;16.60;43.96
64294;BME280;50636;45.596;5.258;2023-03-23T08:37:35;98348.34;;;16.64;43.54
64294;BME280;50636;45.596;5.258;2023-03-23T08:40:01;98357.91;;;16.65;43.70
64294;BME280;50636;45.596;5.258;2023-03-23T08:42:32;98351.84;;;16.70;43.57
64294;BME280;50636;45.596;5.258;2023-03-23T08:44:58;98368.50;;;16.65;43.67
64294;BME280;50636;45.596;5.258;2023-03-23T08:47:24;98326.06;;;16.60;44.30
64294;BME280;50636;45.596;5.258;2023-03-23T08:49:51;98356.16;;;16.54;44.10
64294;BME280;50636;45.596;5.258;2023-03-23T08:52:19;98355.19;;;16.60;44.63
64294;BME280;50636;45.596;5.258;2023-03-23T08:54:45;98360.19;;;16.78;44.46
64294;BME280;50636;45.596;5.258;2023-03-23T08:57:13;98377.31;;;16.93;44.59
64294;BME280;50636;45.596;5.258;2023-03-23T08:59:43;98378.53;;;17.07;44.53
64294;BME280;50636;45.596;5.258;2023-03-23T09:02:10;98372.72;;;17.10;43.84
64294;BME280;50636;45.596;5.258;2023-03-23T09:04:40;98381.38;;;17.01;44.45
64294;BME280;50636;45.596;5.258;2023-03-23T09:07:09;98403.63;;;17.00;45.03
64294;BME280;50636;45.596;5.258;2023-03-23T09:09:36;98397.38;;;17.11;45.66
64294;BME280;50636;45.596;5.258;2023-03-23T09:12:03;98397.31;;;17.06;46.20
64294;BME280;50636;45.596;5.258;2023-03-23T09:14:29;98385.47;;;17.13;46.23
64294;BME280;50636;45.596;5.258;2023-03-23T09:16:55;98366.41;;;17.16;46.91
64294;BME280;50636;45.596;5.258;2023-03-23T09:19:21;98347.72;;;17.33;45.02
64294;BME280;50636;45.596;5.258;2023-03-23T09:21:46;98386.09;;;17.21;45.32
64294;BME280;50636;45.596;5.258;2023-03-23T09:24:12;98411.78;;;17.20;45.63
64294;BME280;50636;45.596;5.258;2023-03-23T09:26:38;98401.00;;;17.27;45.87
64294;BME280;50636;45.596;5.258;2023-03-23T09:29:03;98379.22;;;17.25;46.11
64294;BME280;50636;45.596;5.258;2023-03-23T09:31:29;98365.50;;;17.33;45.93
64294;BME280;50636;45.596;5.258;2023-03-23T09:33:57;98359.38;;;17.32;46.29
64294;BME280;50636;45.596;5.258;2023-03-23T09:36:25;98371.66;;;17.39;46.16
64294;BME280;50636;45.596;5.258;2023-03-23T09:38:57;98359.66;;;17.31;46.39
64294;BME280;50636;45.596;5.258;2023-03-23T09:44:07;98388.81;;;17.31;46.84
64294;BME280;50636;45.596;5.258;2023-03-23T09:50:02;98396.28;;;17.99;46.24
64294;BME280;50636;45.596;5.258;2023-03-23T09:52:43;98394.66;;;18.40;46.04
64294;BME280;50636;45.596;5.258;2023-03-23T09:55:14;98414.44;;;18.60;44.13
64294;BME280;50636;45.596;5.258;2023-03-23T10:03:03;98393.53;;;18.89;43.44
64294;BME280;50636;45.596;5.258;2023-03-23T10:05:55;98397.84;;;19.00;43.67
64294;BME280;50636;45.596;5.258;2023-03-23T10:08:29;98402.09;;;18.96;42.85
64294;BME280;50636;45.596;5.258;2023-03-23T10:16:29;98400.81;;;20.11;41.13
64294;BME280;50636;45.596;5.258;2023-03-23T10:22:02;98381.06;;;20.98;38.60
64294;BME280;50636;45.596;5.258;2023-03-23T10:24:57;98395.22;;;20.93;38.37
64294;BME280;50636;45.596;5.258;2023-03-23T10:30:01;98417.28;;;20.34;39.68
64294;BME280;50636;45.596;5.258;2023-03-23T10:32:41;98409.84;;;20.26;40.01
64294;BME280;50636;45.596;5.258;2023-03-23T10:35:17;98405.56;;;20.35;40.21
64294;BME280;50636;45.596;5.258;2023-03-23T10:37:49;98413.75;;;20.69;40.09
64294;BME280;50636;45.596;5.258;2023-03-23T10:40:19;98394.13;;;20.94;38.42
64294;BME280;50636;45.596;5.258;2023-03-23T10:42:46;98401.09;;;20.90;39.43
64294;BME280;50636;45.596;5.258;2023-03-23T10:45:22;98413.44;;;20.76;39.20
64294;BME280;50636;45.596;5.258;2023-03-23T10:47:56;98418.59;;;20.47;39.52
64294;BME280;50636;45.596;5.258;2023-03-23T10:50:31;98415.22;;;20.10;40.22
64294;BME280;50636;45.596;5.258;2023-03-23T10:52:59;98418.16;;;19.63;41.28
64294;BME280;50636;45.596;5.258;2023-03-23T10:55:38;98421.84;;;19.26;44.87
64294;BME280;50636;45.596;5.258;2023-03-23T10:58:26;98429.25;;;18.45;47.70
64294;BME280;50636;45.596;5.258;2023-03-23T11:00:55;98427.94;;;17.73;49.91
64294;BME280;50636;45.596;5.258;2023-03-23T11:06:00;98415.91;;;17.33;51.40
64294;BME280;50636;45.596;5.258;2023-03-23T11:08:33;98421.00;;;17.40;53.21
64294;BME280;50636;45.596;5.258;2023-03-23T11:11:14;98418.69;;;17.48;52.03
64294;BME280;50636;45.596;5.258;2023-03-23T11:13:47;98409.97;;;17.53;51.32
64294;BME280;50636;45.596;5.258;2023-03-23T11:16:50;98413.72;;;17.57;52.22
64294;BME280;50636;45.596;5.258;2023-03-23T11:19:37;98432.78;;;17.81;52.14
64294;BME280;50636;45.596;5.258;2023-03-23T11:24:46;98425.72;;;18.34;48.49
64294;BME280;50636;45.596;5.258;2023-03-23T11:27:14;98412.97;;;18.36;48.07
64294;BME280;50636;45.596;5.258;2023-03-23T11:29:58;98429.59;;;18.64;47.89
64294;BME280;50636;45.596;5.258;2023-03-23T11:32:28;98434.88;;;19.22;46.37
64294;BME280;50636;45.596;5.258;2023-03-23T11:34:59;98435.75;;;19.74;44.62
64294;BME280;50636;45.596;5.258;2023-03-23T11:37:35;98424.00;;;20.16;43.75
64294;BME280;50636;45.596;5.258;2023-03-23T11:42:55;98422.97;;;21.47;40.97
64294;BME280;50636;45.596;5.258;2023-03-23T11:45:31;98430.53;;;21.69;39.88
64294;BME280;50636;45.596;5.258;2023-03-23T11:53:55;98437.38;;;21.46;39.04
64294;BME280;50636;45.596;5.258;2023-03-23T11:58:55;98437.03;;;21.53;38.88
64294;BME280;50636;45.596;5.258;2023-03-23T12:07:17;98449.50;;;20.63;39.75
64294;BME280;50636;45.596;5.258;2023-03-23T12:10:09;98451.09;;;20.54;40.59
64294;BME280;50636;45.596;5.258;2023-03-23T12:18:40;98455.84;;;20.72;40.73
64294;BME280;50636;45.596;5.258;2023-03-23T12:48:02;98411.09;;;20.64;41.75
64294;BME280;50636;45.596;5.258;2023-03-23T12:50:59;98404.44;;;20.57;42.16
64294;BME280;50636;45.596;5.258;2023-03-23T12:53:32;98404.72;;;20.55;42.05
64294;BME280;50636;45.596;5.258;2023-03-23T12:56:17;98392.47;;;20.59;42.47
64294;BME280;50636;45.596;5.258;2023-03-23T12:58:46;98380.19;;;20.63;41.98
64294;BME280;50636;45.596;5.258;2023-03-23T13:01:30;98380.47;;;20.46;42.16
64294;BME280;50636;45.596;5.258;2023-03-23T13:06:36;98376.56;;;20.28;42.68
64294;BME280;50636;45.596;5.258;2023-03-23T13:11:54;98388.34;;;19.91;44.24
64294;BME280;50636;45.596;5.258;2023-03-23T13:20:31;98399.50;;;19.68;44.65
64294;BME280;50636;45.596;5.258;2023-03-23T13:28:20;98389.38;;;19.49;47.04
64294;BME280;50636;45.596;5.258;2023-03-23T13:31:36;98382.47;;;19.33;47.61
64294;BME280;50636;45.596;5.258;2023-03-23T13:33:53;98384.53;;;19.05;50.18
64294;BME280;50636;45.596;5.258;2023-03-23T13:36:37;98376.19;;;18.76;52.41
64294;BME280;50636;45.596;5.258;2023-03-23T13:39:18;98381.66;;;18.44;54.19
64294;BME280;50636;45.596;5.258;2023-03-23T13:42:20;98380.97;;;18.16;55.55
64294;BME280;50636;45.596;5.258;2023-03-23T13:47:26;98358.81;;;18.48;55.12
64294;BME280;50636;45.596;5.258;2023-03-23T13:49:56;98351.03;;;18.99;54.06
64294;BME280;50636;45.596;5.258;2023-03-23T13:52:35;98333.50;;;19.44;51.87
64294;BME280;50636;45.596;5.258;2023-03-23T13:57:56;98341.50;;;19.44;49.76
64294;BME280;50636;45.596;5.258;2023-03-23T14:13:05;98319.91;;;19.82;48.42
64294;BME280;50636;45.596;5.258;2023-03-23T14:15:42;98328.41;;;19.84;48.29
64294;BME280;50636;45.596;5.258;2023-03-23T14:18:14;98322.50;;;20.07;47.47
64294;BME280;50636;45.596;5.258;2023-03-23T14:20:41;98315.22;;;20.39;46.30
64294;BME280;50636;45.596;5.258;2023-03-23T14:23:15;98306.00;;;20.70;45.58
64294;BME280;50636;45.596;5.258;2023-03-23T14:25:41;98303.25;;;20.86;44.61
64294;BME280;50636;45.596;5.258;2023-03-23T14:28:17;98297.63;;;20.87;44.63
64294;BME280;50636;45.596;5.258;2023-03-23T14:30:43;98304.78;;;20.97;44.48
64294;BME280;50636;45.596;5.258;2023-03-23T14:33:10;98297.38;;;21.23;44.42
64294;BME280;50636;45.596;5.258;2023-03-23T14:35:41;98295.28;;;21.79;42.86
64294;BME280;50636;45.596;5.258;2023-03-23T14:38:15;98293.34;;;22.08;42.23
64294;BME280;50636;45.596;5.258;2023-03-23T14:40:43;98296.19;;;22.17;41.85
64294;BME280;50636;45.596;5.258;2023-03-23T14:43:11;98294.59;;;22.16;41.93
64294;BME280;50636;45.596;5.258;2023-03-23T14:45:39;98289.53;;;22.14;41.83
64294;BME280;50636;45.596;5.258;2023-03-23T14:48:06;98280.66;;;22.19;41.75
64294;BME280;50636;45.596;5.258;2023-03-23T14:53:17;98277.97;;;22.19;41.67
64294;BME280;50636;45.596;5.258;2023-03-23T14:55:46;98275.28;;;22.00;42.24
64294;BME280;50636;45.596;5.258;2023-03-23T14:58:14;98271.06;;;21.94;42.22
64294;BME280;50636;45.596;5.258;2023-03-23T15:00:51;98274.03;;;21.92;42.33
64294;BME280;50636;45.596;5.258;2023-03-23T15:03:19;98267.38;;;21.90;41.90
64294;BME280;50636;45.596;5.258;2023-03-23T15:05:54;98266.28;;;21.67;42.69
64294;BME280;50636;45.596;5.258;2023-03-23T15:08:25;98264.53;;;21.57;42.67
64294;BME280;50636;45.596;5.258;2023-03-23T15:13:57;98256.06;;;21.50;42.91
64294;BME280;50636;45.596;5.258;2023-03-23T15:16:32;98255.97;;;21.26;43.19
64294;BME280;50636;45.596;5.258;2023-03-23T15:23:53;98250.31;;;21.03;44.05
64294;BME280;50636;45.596;5.258;2023-03-23T15:26:34;98247.72;;;20.93;44.24
64294;BME280;50636;45.596;5.258;2023-03-23T15:29:20;98242.03;;;21.05;43.69
64294;BME280;50636;45.596;5.258;2023-03-23T15:31:51;98240.41;;;21.04;43.75
64294;BME280;50636;45.596;5.258;2023-03-23T15:37:03;98228.28;;;20.87;44.36